sensor_id;sensor_type;location;lat;lon;timestamp;P1;durP1;ratioP1;P2;durP2;ratioP2
12451;SDS011;6291;48.924;12.204;2023-06-14T00:03:36;5.00;;;4.10;;
12451;SDS011;6291;48.924;12.204;2023-06-14T00:08:41;6.20;;;4.38;;
12451;SDS011;6291;48.924;12.204;2023-06-14T00:13:45;5.73;;;3.50;;
12451;SDS011;6291;48.924;12.204;2023-06-14T00:18:48;5.60;;;3.80;;
12451;SDS011;6291;48.924;12.204;2023-06-14T00:23:55;6.68;;;4.15;;
12451;SDS011;6291;48.924;12.204;2023-06-14T00:28:58;4.90;;;4.40;;
12451;SDS011;6291;48.924;12.204;2023-06-14T00:34:02;4.82;;;4.28;;
12451;SDS011;6291;48.924;12.204;2023-06-14T00:39:06;6.65;;;4.57;;
12451;SDS011;6291;48.924;12.204;2023-06-14T00:44:11;6.65;;;5.18;;
12451;SDS011;6291;48.924;12.204;2023-06-14T00:49:18;7.20;;;5.20;;
12451;SDS011;6291;48.924;12.204;2023-06-14T00:54:24;7.00;;;5.20;;
12451;SDS011;6291;48.924;12.204;2023-06-14T00:59:27;5.90;;;4.70;;
12451;SDS011;6291;48.924;12.204;2023-06-14T01:04:30;7.82;;;4.18;;
12451;SDS011;6291;48.924;12.204;2023-06-14T01:09:37;4.10;;;3.70;;
12451;SDS011;6291;48.924;12.204;2023-06-14T01:14:51;5.97;;;4.07;;
12451;SDS011;6291;48.924;12.204;2023-06-14T01:19:57;5.60;;;3.90;;
12451;SDS011;6291;48.924;12.204;2023-06-14T01:25:02;5.30;;;3.60;;
12451;SDS011;6291;48.924;12.204;2023-06-14T01:30:07;4.07;;;3.20;;
12451;SDS011;6291;48.924;12.204;2023-06-14T01:35:14;4.72;;;3.78;;
12451;SDS011;6291;48.924;12.204;2023-06-14T01:40:19;4.40;;;3.30;;
12451;SDS011;6291;48.924;12.204;2023-06-14T01:45:24;4.13;;;3.40;;
12451;SDS011;6291;48.924;12.204;2023-06-14T01:50:31;4.00;;;3.30;;
12451;SDS011;6291;48.924;12.204;2023-06-14T01:55:35;3.90;;;3.47;;
12451;SDS011;6291;48.924;12.204;2023-06-14T02:00:42;4.55;;;3.25;;
12451;SDS011;6291;48.924;12.204;2023-06-14T02:05:46;3.40;;;2.97;;
12451;SDS011;6291;48.924;12.204;2023-06-14T02:10:51;3.90;;;3.53;;
12451;SDS011;6291;48.924;12.204;2023-06-14T02:15:55;5.45;;;3.17;;
12451;SDS011;6291;48.924;12.204;2023-06-14T02:20:59;4.27;;;3.40;;
12451;SDS011;6291;48.924;12.204;2023-06-14T02:26:03;4.50;;;3.37;;
12451;SDS011;6291;48.924;12.204;2023-06-14T02:31:08;3.75;;;3.20;;
12451;SDS011;6291;48.924;12.204;2023-06-14T02:36:12;4.67;;;3.57;;
12451;SDS011;6291;48.924;12.204;2023-06-14T02:41:16;5.30;;;3.40;;
12451;SDS011;6291;48.924;12.204;2023-06-14T02:46:20;4.60;;;3.50;;
12451;SDS011;6291;48.924;12.204;2023-06-14T02:51:23;4.43;;;3.70;;
12451;SDS011;6291;48.924;12.204;2023-06-14T02:56:28;3.87;;;3.40;;
12451;SDS011;6291;48.924;12.204;2023-06-14T03:01:32;4.78;;;3.42;;
12451;SDS011;6291;48.924;12.204;2023-06-14T03:06:40;3.80;;;3.40;;
12451;SDS011;6291;48.924;12.204;2023-06-14T03:11:49;4.25;;;3.25;;
12451;SDS011;6291;48.924;12.204;2023-06-14T03:16:52;3.65;;;3.20;;
12451;SDS011;6291;48.924;12.204;2023-06-14T03:21:58;3.72;;;3.35;;
12451;SDS011;6291;48.924;12.204;2023-06-14T03:27:06;5.13;;;3.40;;
12451;SDS011;6291;48.924;12.204;2023-06-14T03:32:15;3.70;;;3.30;;
12451;SDS011;6291;48.924;12.204;2023-06-14T03:37:18;4.23;;;3.50;;
12451;SDS011;6291;48.924;12.204;2023-06-14T03:42:23;3.50;;;3.20;;
12451;SDS011;6291;48.924;12.204;2023-06-14T03:47:29;4.35;;;3.33;;
12451;SDS011;6291;48.924;12.204;2023-06-14T03:52:32;3.78;;;3.38;;
12451;SDS011;6291;48.924;12.204;2023-06-14T03:57:37;4.93;;;3.38;;
12451;SDS011;6291;48.924;12.204;2023-06-14T04:02:44;4.30;;;3.40;;
12451;SDS011;6291;48.924;12.204;2023-06-14T04:07:48;5.35;;;3.35;;
12451;SDS011;6291;48.924;12.204;2023-06-14T04:12:53;3.70;;;3.28;;
12451;SDS011;6291;48.924;12.204;2023-06-14T04:17:57;4.78;;;3.33;;
12451;SDS011;6291;48.924;12.204;2023-06-14T04:23:10;6.53;;;3.42;;
12451;SDS011;6291;48.924;12.204;2023-06-14T04:28:16;4.30;;;3.53;;
12451;SDS011;6291;48.924;12.204;2023-06-14T04:33:21;4.40;;;3.00;;
12451;SDS011;6291;48.924;12.204;2023-06-14T04:38:28;5.77;;;3.00;;
12451;SDS011;6291;48.924;12.204;2023-06-14T04:43:38;3.58;;;3.10;;
12451;SDS011;6291;48.924;12.204;2023-06-14T04:48:42;4.00;;;3.17;;
12451;SDS011;6291;48.924;12.204;2023-06-14T04:53:45;5.95;;;3.15;;
12451;SDS011;6291;48.924;12.204;2023-06-14T04:58:53;3.97;;;3.20;;
12451;SDS011;6291;48.924;12.204;2023-06-14T05:03:58;3.30;;;2.95;;
12451;SDS011;6291;48.924;12.204;2023-06-14T05:09:01;3.78;;;3.00;;
12451;SDS011;6291;48.924;12.204;2023-06-14T05:14:06;3.40;;;3.10;;
12451;SDS011;6291;48.924;12.204;2023-06-14T05:19:10;3.25;;;2.90;;
12451;SDS011;6291;48.924;12.204;2023-06-14T05:24:13;4.20;;;3.20;;
12451;SDS011;6291;48.924;12.204;2023-06-14T05:29:20;4.30;;;3.30;;
12451;SDS011;6291;48.924;12.204;2023-06-14T05:34:23;4.75;;;3.03;;
12451;SDS011;6291;48.924;12.204;2023-06-14T05:39:26;4.50;;;3.00;;
12451;SDS011;6291;48.924;12.204;2023-06-14T05:44:31;3.92;;;2.90;;
12451;SDS011;6291;48.924;12.204;2023-06-14T05:49:34;3.92;;;2.72;;
12451;SDS011;6291;48.924;12.204;2023-06-14T05:54:37;5.50;;;3.10;;
12451;SDS011;6291;48.924;12.204;2023-06-14T05:59:42;3.75;;;2.85;;
12451;SDS011;6291;48.924;12.204;2023-06-14T06:04:45;4.18;;;2.85;;
12451;SDS011;6291;48.924;12.204;2023-06-14T06:09:49;5.10;;;2.90;;
12451;SDS011;6291;48.924;12.204;2023-06-14T06:14:53;3.75;;;2.83;;
12451;SDS011;6291;48.924;12.204;2023-06-14T06:19:57;4.65;;;2.90;;
12451;SDS011;6291;48.924;12.204;2023-06-14T06:25:00;4.60;;;2.80;;
12451;SDS011;6291;48.924;12.204;2023-06-14T06:30:06;2.85;;;2.47;;
12451;SDS011;6291;48.924;12.204;2023-06-14T06:35:10;5.32;;;2.80;;
12451;SDS011;6291;48.924;12.204;2023-06-14T06:40:14;5.83;;;2.87;;
12451;SDS011;6291;48.924;12.204;2023-06-14T06:45:19;4.25;;;2.83;;
12451;SDS011;6291;48.924;12.204;2023-06-14T06:50:25;5.27;;;3.13;;
12451;SDS011;6291;48.924;12.204;2023-06-14T06:55:29;3.97;;;2.58;;
12451;SDS011;6291;48.924;12.204;2023-06-14T07:00:34;4.18;;;2.90;;
12451;SDS011;6291;48.924;12.204;2023-06-14T07:05:38;4.30;;;2.83;;
12451;SDS011;6291;48.924;12.204;2023-06-14T07:10:41;4.40;;;2.63;;
12451;SDS011;6291;48.924;12.204;2023-06-14T07:15:46;6.80;;;2.67;;
12451;SDS011;6291;48.924;12.204;2023-06-14T07:20:49;2.50;;;2.30;;
12451;SDS011;6291;48.924;12.204;2023-06-14T07:25:53;4.35;;;2.80;;
12451;SDS011;6291;48.924;12.204;2023-06-14T07:30:58;2.57;;;2.20;;
12451;SDS011;6291;48.924;12.204;2023-06-14T07:36:01;4.50;;;2.63;;
12451;SDS011;6291;48.924;12.204;2023-06-14T07:41:05;3.53;;;2.63;;
12451;SDS011;6291;48.924;12.204;2023-06-14T07:46:09;5.10;;;2.50;;
12451;SDS011;6291;48.924;12.204;2023-06-14T07:51:13;3.65;;;2.20;;
12451;SDS011;6291;48.924;12.204;2023-06-14T07:56:16;2.72;;;2.40;;
12451;SDS011;6291;48.924;12.204;2023-06-14T08:01:21;4.60;;;2.50;;
12451;SDS011;6291;48.924;12.204;2023-06-14T08:06:26;2.93;;;2.20;;
12451;SDS011;6291;48.924;12.204;2023-06-14T08:11:30;4.07;;;2.25;;
12451;SDS011;6291;48.924;12.204;2023-06-14T08:16:37;3.45;;;2.00;;
12451;SDS011;6291;48.924;12.204;2023-06-14T08:21:40;3.20;;;2.25;;
12451;SDS011;6291;48.924;12.204;2023-06-14T08:26:45;5.38;;;2.60;;
12451;SDS011;6291;48.924;12.204;2023-06-14T08:31:50;5.13;;;2.60;;
12451;SDS011;6291;48.924;12.204;2023-06-14T08:36:53;2.72;;;2.53;;
12451;SDS011;6291;48.924;12.204;2023-06-14T08:41:56;3.20;;;2.70;;
12451;SDS011;6291;48.924;12.204;2023-06-14T08:47:02;5.87;;;2.90;;
12451;SDS011;6291;48.924;12.204;2023-06-14T08:52:06;4.43;;;2.97;;
12451;SDS011;6291;48.924;12.204;2023-06-14T08:57:14;5.35;;;2.55;;
12451;SDS011;6291;48.924;12.204;2023-06-14T09:02:19;3.73;;;2.17;;
12451;SDS011;6291;48.924;12.204;2023-06-14T09:07:24;3.08;;;2.50;;
12451;SDS011;6291;48.924;12.204;2023-06-14T09:12:27;4.40;;;2.20;;
12451;SDS011;6291;48.924;12.204;2023-06-14T09:17:33;3.55;;;2.40;;
12451;SDS011;6291;48.924;12.204;2023-06-14T09:22:37;3.63;;;2.67;;
12451;SDS011;6291;48.924;12.204;2023-06-14T09:27:41;3.78;;;2.60;;
12451;SDS011;6291;48.924;12.204;2023-06-14T09:32:46;2.92;;;2.30;;
12451;SDS011;6291;48.924;12.204;2023-06-14T09:37:49;3.53;;;2.70;;
12451;SDS011;6291;48.924;12.204;2023-06-14T09:42:53;5.30;;;2.63;;
12451;SDS011;6291;48.924;12.204;2023-06-14T09:48:01;3.15;;;2.40;;
12451;SDS011;6291;48.924;12.204;2023-06-14T09:53:09;4.20;;;2.60;;
12451;SDS011;6291;48.924;12.204;2023-06-14T09:58:14;3.88;;;2.50;;
12451;SDS011;6291;48.924;12.204;2023-06-14T10:03:27;2.65;;;2.45;;
12451;SDS011;6291;48.924;12.204;2023-06-14T10:08:52;3.25;;;2.22;;
12451;SDS011;6291;48.924;12.204;2023-06-14T10:14:01;3.60;;;2.50;;
12451;SDS011;6291;48.924;12.204;2023-06-14T10:19:10;2.92;;;2.20;;
12451;SDS011;6291;48.924;12.204;2023-06-14T10:24:18;3.63;;;2.60;;
12451;SDS011;6291;48.924;12.204;2023-06-14T10:29:28;2.92;;;2.20;;
12451;SDS011;6291;48.924;12.204;2023-06-14T10:34:38;2.87;;;2.40;;
12451;SDS011;6291;48.924;12.204;2023-06-14T10:39:42;3.33;;;2.10;;
12451;SDS011;6291;48.924;12.204;2023-06-14T10:44:49;2.47;;;2.07;;
12451;SDS011;6291;48.924;12.204;2023-06-14T10:49:55;2.50;;;2.25;;
12451;SDS011;6291;48.924;12.204;2023-06-14T10:55:01;2.20;;;2.00;;
12451;SDS011;6291;48.924;12.204;2023-06-14T11:00:11;2.50;;;2.30;;
12451;SDS011;6291;48.924;12.204;2023-06-14T11:05:20;3.00;;;2.35;;
12451;SDS011;6291;48.924;12.204;2023-06-14T11:10:30;4.78;;;2.50;;
12451;SDS011;6291;48.924;12.204;2023-06-14T11:15:39;4.57;;;2.30;;
12451;SDS011;6291;48.924;12.204;2023-06-14T11:20:49;4.45;;;2.70;;
12451;SDS011;6291;48.924;12.204;2023-06-14T11:25:54;3.42;;;2.53;;
12451;SDS011;6291;48.924;12.204;2023-06-14T11:31:00;2.80;;;2.53;;
12451;SDS011;6291;48.924;12.204;2023-06-14T11:36:07;2.75;;;2.42;;
12451;SDS011;6291;48.924;12.204;2023-06-14T11:41:12;2.83;;;2.17;;
12451;SDS011;6291;48.924;12.204;2023-06-14T11:46:16;3.70;;;2.50;;
12451;SDS011;6291;48.924;12.204;2023-06-14T11:51:26;4.10;;;2.40;;
12451;SDS011;6291;48.924;12.204;2023-06-14T11:56:31;4.35;;;2.40;;
12451;SDS011;6291;48.924;12.204;2023-06-14T12:01:36;3.47;;;2.30;;
12451;SDS011;6291;48.924;12.204;2023-06-14T12:06:42;4.28;;;2.42;;
12451;SDS011;6291;48.924;12.204;2023-06-14T12:11:46;3.80;;;2.40;;
12451;SDS011;6291;48.924;12.204;2023-06-14T12:16:49;3.83;;;2.40;;
12451;SDS011;6291;48.924;12.204;2023-06-14T12:21:54;2.80;;;2.55;;
12451;SDS011;6291;48.924;12.204;2023-06-14T12:27:03;3.53;;;2.60;;
12451;SDS011;6291;48.924;12.204;2023-06-14T12:32:07;3.60;;;2.50;;
12451;SDS011;6291;48.924;12.204;2023-06-14T12:37:12;2.50;;;2.30;;
12451;SDS011;6291;48.924;12.204;2023-06-14T12:42:16;3.60;;;2.38;;
12451;SDS011;6291;48.924;12.204;2023-06-14T12:47:19;3.22;;;2.33;;
12451;SDS011;6291;48.924;12.204;2023-06-14T12:52:24;2.45;;;2.25;;
12451;SDS011;6291;48.924;12.204;2023-06-14T12:57:30;2.80;;;2.40;;
12451;SDS011;6291;48.924;12.204;2023-06-14T13:02:34;4.28;;;2.40;;
12451;SDS011;6291;48.924;12.204;2023-06-14T13:07:39;3.80;;;2.40;;
12451;SDS011;6291;48.924;12.204;2023-06-14T13:12:43;3.45;;;2.50;;
12451;SDS011;6291;48.924;12.204;2023-06-14T13:17:47;2.40;;;2.17;;
12451;SDS011;6291;48.924;12.204;2023-06-14T13:22:52;4.33;;;2.37;;
12451;SDS011;6291;48.924;12.204;2023-06-14T13:27:56;2.90;;;2.30;;
12451;SDS011;6291;48.924;12.204;2023-06-14T13:33:00;3.92;;;2.50;;
12451;SDS011;6291;48.924;12.204;2023-06-14T13:38:05;2.25;;;2.03;;
12451;SDS011;6291;48.924;12.204;2023-06-14T13:43:09;3.60;;;2.22;;
12451;SDS011;6291;48.924;12.204;2023-06-14T13:48:12;2.70;;;2.50;;
12451;SDS011;6291;48.924;12.204;2023-06-14T13:53:17;2.50;;;2.30;;
12451;SDS011;6291;48.924;12.204;2023-06-14T13:58:21;2.80;;;2.30;;
12451;SDS011;6291;48.924;12.204;2023-06-14T14:03:24;2.90;;;2.30;;
12451;SDS011;6291;48.924;12.204;2023-06-14T14:08:29;3.63;;;2.70;;
12451;SDS011;6291;48.924;12.204;2023-06-14T14:13:33;3.00;;;2.42;;
12451;SDS011;6291;48.924;12.204;2023-06-14T14:18:37;3.10;;;2.70;;
12451;SDS011;6291;48.924;12.204;2023-06-14T14:23:42;3.45;;;2.65;;
12451;SDS011;6291;48.924;12.204;2023-06-14T14:28:47;3.90;;;2.78;;
12451;SDS011;6291;48.924;12.204;2023-06-14T14:33:50;4.28;;;2.85;;
12451;SDS011;6291;48.924;12.204;2023-06-14T14:38:55;3.33;;;2.60;;
12451;SDS011;6291;48.924;12.204;2023-06-14T14:43:58;3.25;;;2.47;;
12451;SDS011;6291;48.924;12.204;2023-06-14T14:49:02;4.78;;;2.60;;
12451;SDS011;6291;48.924;12.204;2023-06-14T14:54:07;3.53;;;2.50;;
12451;SDS011;6291;48.924;12.204;2023-06-14T14:59:10;3.83;;;2.88;;
12451;SDS011;6291;48.924;12.204;2023-06-14T15:04:14;4.87;;;2.80;;
12451;SDS011;6291;48.924;12.204;2023-06-14T15:09:19;4.72;;;2.40;;
12451;SDS011;6291;48.924;12.204;2023-06-14T15:14:22;3.47;;;2.30;;
12451;SDS011;6291;48.924;12.204;2023-06-14T15:19:26;5.03;;;2.60;;
12451;SDS011;6291;48.924;12.204;2023-06-14T15:24:31;3.47;;;2.38;;
12451;SDS011;6291;48.924;12.204;2023-06-14T15:29:44;2.83;;;2.50;;
12451;SDS011;6291;48.924;12.204;2023-06-14T15:34:51;4.00;;;2.20;;
12451;SDS011;6291;48.924;12.204;2023-06-14T15:39:56;3.37;;;2.30;;
12451;SDS011;6291;48.924;12.204;2023-06-14T15:45:00;3.05;;;2.30;;
12451;SDS011;6291;48.924;12.204;2023-06-14T15:50:03;3.20;;;2.60;;
12451;SDS011;6291;48.924;12.204;2023-06-14T15:55:10;2.78;;;2.30;;
12451;SDS011;6291;48.924;12.204;2023-06-14T16:00:15;3.40;;;2.20;;
12451;SDS011;6291;48.924;12.204;2023-06-14T16:05:19;4.18;;;2.60;;
12451;SDS011;6291;48.924;12.204;2023-06-14T16:10:24;3.92;;;2.30;;
12451;SDS011;6291;48.924;12.204;2023-06-14T16:15:29;3.88;;;2.53;;
12451;SDS011;6291;48.924;12.204;2023-06-14T16:20:34;3.50;;;2.27;;
12451;SDS011;6291;48.924;12.204;2023-06-14T16:25:46;3.87;;;2.60;;
12451;SDS011;6291;48.924;12.204;2023-06-14T16:30:49;2.63;;;2.10;;
12451;SDS011;6291;48.924;12.204;2023-06-14T16:35:52;4.30;;;2.42;;
12451;SDS011;6291;48.924;12.204;2023-06-14T16:40:57;3.80;;;2.50;;
12451;SDS011;6291;48.924;12.204;2023-06-14T16:46:01;3.03;;;2.40;;
12451;SDS011;6291;48.924;12.204;2023-06-14T16:51:04;2.60;;;2.40;;
12451;SDS011;6291;48.924;12.204;2023-06-14T16:56:09;3.13;;;2.43;;
12451;SDS011;6291;48.924;12.204;2023-06-14T17:01:12;2.70;;;2.28;;
12451;SDS011;6291;48.924;12.204;2023-06-14T17:06:16;4.17;;;2.50;;
12451;SDS011;6291;48.924;12.204;2023-06-14T17:11:21;3.70;;;2.60;;
12451;SDS011;6291;48.924;12.204;2023-06-14T17:16:25;3.88;;;2.30;;
12451;SDS011;6291;48.924;12.204;2023-06-14T17:21:28;2.83;;;2.28;;
12451;SDS011;6291;48.924;12.204;2023-06-14T17:26:33;2.97;;;2.40;;
12451;SDS011;6291;48.924;12.204;2023-06-14T17:31:37;2.40;;;2.20;;
12451;SDS011;6291;48.924;12.204;2023-06-14T17:36:40;3.05;;;2.40;;
12451;SDS011;6291;48.924;12.204;2023-06-14T17:41:47;3.25;;;2.40;;
12451;SDS011;6291;48.924;12.204;2023-06-14T17:46:50;3.13;;;2.30;;
12451;SDS011;6291;48.924;12.204;2023-06-14T17:51:53;3.85;;;2.17;;
12451;SDS011;6291;48.924;12.204;2023-06-14T17:56:58;2.37;;;2.17;;
12451;SDS011;6291;48.924;12.204;2023-06-14T18:02:01;3.63;;;2.50;;
12451;SDS011;6291;48.924;12.204;2023-06-14T18:07:05;3.00;;;2.20;;
12451;SDS011;6291;48.924;12.204;2023-06-14T18:12:11;2.90;;;2.20;;
12451;SDS011;6291;48.924;12.204;2023-06-14T18:17:15;5.25;;;2.30;;
12451;SDS011;6291;48.924;12.204;2023-06-14T18:22:18;3.00;;;2.50;;
12451;SDS011;6291;48.924;12.204;2023-06-14T18:27:24;2.35;;;2.15;;
12451;SDS011;6291;48.924;12.204;2023-06-14T18:32:31;2.60;;;2.33;;
12451;SDS011;6291;48.924;12.204;2023-06-14T18:37:36;3.70;;;2.38;;
12451;SDS011;6291;48.924;12.204;2023-06-14T18:42:41;3.47;;;2.30;;
12451;SDS011;6291;48.924;12.204;2023-06-14T18:47:45;3.17;;;2.20;;
12451;SDS011;6291;48.924;12.204;2023-06-14T18:52:48;3.33;;;2.30;;
12451;SDS011;6291;48.924;12.204;2023-06-14T18:57:53;2.70;;;2.42;;
12451;SDS011;6291;48.924;12.204;2023-06-14T19:02:57;2.47;;;2.28;;
12451;SDS011;6291;48.924;12.204;2023-06-14T19:08:00;2.80;;;2.30;;
12451;SDS011;6291;48.924;12.204;2023-06-14T19:13:06;2.65;;;2.40;;
12451;SDS011;6291;48.924;12.204;2023-06-14T19:18:12;2.88;;;2.58;;
12451;SDS011;6291;48.924;12.204;2023-06-14T19:23:16;2.90;;;2.47;;
12451;SDS011;6291;48.924;12.204;2023-06-14T19:28:21;4.70;;;2.25;;
12451;SDS011;6291;48.924;12.204;2023-06-14T19:33:28;5.18;;;2.50;;
12451;SDS011;6291;48.924;12.204;2023-06-14T19:38:31;3.43;;;2.53;;
12451;SDS011;6291;48.924;12.204;2023-06-14T19:43:36;2.57;;;2.37;;
12451;SDS011;6291;48.924;12.204;2023-06-14T19:48:39;2.97;;;2.47;;
12451;SDS011;6291;48.924;12.204;2023-06-14T19:53:43;3.37;;;2.30;;
12451;SDS011;6291;48.924;12.204;2023-06-14T19:58:48;3.17;;;2.60;;
12451;SDS011;6291;48.924;12.204;2023-06-14T20:03:51;2.97;;;2.58;;
12451;SDS011;6291;48.924;12.204;2023-06-14T20:08:55;3.15;;;2.53;;
12451;SDS011;6291;48.924;12.204;2023-06-14T20:14:00;3.33;;;2.33;;
12451;SDS011;6291;48.924;12.204;2023-06-14T20:19:06;3.13;;;2.60;;
12451;SDS011;6291;48.924;12.204;2023-06-14T20:24:10;3.90;;;2.50;;
12451;SDS011;6291;48.924;12.204;2023-06-14T20:29:15;3.45;;;2.75;;
12451;SDS011;6291;48.924;12.204;2023-06-14T20:34:19;2.78;;;2.50;;
12451;SDS011;6291;48.924;12.204;2023-06-14T20:39:22;3.75;;;2.80;;
12451;SDS011;6291;48.924;12.204;2023-06-14T20:44:27;2.90;;;2.67;;
12451;SDS011;6291;48.924;12.204;2023-06-14T20:49:31;3.80;;;2.80;;
12451;SDS011;6291;48.924;12.204;2023-06-14T20:54:34;3.90;;;2.97;;
12451;SDS011;6291;48.924;12.204;2023-06-14T20:59:42;3.13;;;2.80;;
12451;SDS011;6291;48.924;12.204;2023-06-14T21:04:46;3.20;;;2.90;;
12451;SDS011;6291;48.924;12.204;2023-06-14T21:09:50;3.70;;;3.03;;
12451;SDS011;6291;48.924;12.204;2023-06-14T21:14:55;3.25;;;2.90;;
12451;SDS011;6291;48.924;12.204;2023-06-14T21:19:58;4.10;;;3.00;;
12451;SDS011;6291;48.924;12.204;2023-06-14T21:25:02;4.30;;;3.17;;
12451;SDS011;6291;48.924;12.204;2023-06-14T21:30:08;4.13;;;3.10;;
12451;SDS011;6291;48.924;12.204;2023-06-14T21:35:12;3.47;;;3.07;;
12451;SDS011;6291;48.924;12.204;2023-06-14T21:40:18;3.38;;;3.08;;
12451;SDS011;6291;48.924;12.204;2023-06-14T21:45:23;3.53;;;3.00;;
12451;SDS011;6291;48.924;12.204;2023-06-14T21:50:26;3.27;;;3.00;;
12451;SDS011;6291;48.924;12.204;2023-06-14T21:55:30;4.47;;;3.00;;
12451;SDS011;6291;48.924;12.204;2023-06-14T22:00:34;3.20;;;3.00;;
12451;SDS011;6291;48.924;12.204;2023-06-14T22:05:38;4.13;;;3.00;;
12451;SDS011;6291;48.924;12.204;2023-06-14T22:10:42;3.55;;;3.20;;
12451;SDS011;6291;48.924;12.204;2023-06-14T22:15:46;4.00;;;3.05;;
12451;SDS011;6291;48.924;12.204;2023-06-14T22:20:52;3.67;;;3.10;;
12451;SDS011;6291;48.924;12.204;2023-06-14T22:25:56;3.50;;;3.20;;
12451;SDS011;6291;48.924;12.204;2023-06-14T22:31:00;3.57;;;3.00;;
12451;SDS011;6291;48.924;12.204;2023-06-14T22:36:06;3.30;;;3.00;;
12451;SDS011;6291;48.924;12.204;2023-06-14T22:41:11;3.35;;;3.05;;
12451;SDS011;6291;48.924;12.204;2023-06-14T22:46:16;3.40;;;3.10;;
12451;SDS011;6291;48.924;12.204;2023-06-14T22:51:24;5.63;;;3.45;;
12451;SDS011;6291;48.924;12.204;2023-06-14T22:56:29;3.40;;;3.10;;
12451;SDS011;6291;48.924;12.204;2023-06-14T23:01:34;3.90;;;3.20;;
12451;SDS011;6291;48.924;12.204;2023-06-14T23:06:38;4.00;;;3.30;;
12451;SDS011;6291;48.924;12.204;2023-06-14T23:11:43;4.13;;;3.30;;
12451;SDS011;6291;48.924;12.204;2023-06-14T23:16:48;3.47;;;3.20;;
12451;SDS011;6291;48.924;12.204;2023-06-14T23:21:52;3.57;;;3.23;;
12451;SDS011;6291;48.924;12.204;2023-06-14T23:27:00;4.03;;;3.13;;
12451;SDS011;6291;48.924;12.204;2023-06-14T23:32:06;4.32;;;3.28;;
12451;SDS011;6291;48.924;12.204;2023-06-14T23:37:10;3.45;;;3.10;;
12451;SDS011;6291;48.924;12.204;2023-06-14T23:42:14;3.97;;;3.58;;
12451;SDS011;6291;48.924;12.204;2023-06-14T23:47:20;4.05;;;3.22;;
12451;SDS011;6291;48.924;12.204;2023-06-14T23:52:23;3.73;;;3.30;;
12451;SDS011;6291;48.924;12.204;2023-06-14T23:57:29;3.67;;;3.37;;
